sensor_id;sensor_type;location;lat;lon;timestamp;pressure;altitude;pressure_sealevel;temperature;humidity
6500;BME280;3283;52.330;9.772;2024-01-11T00:00:15;101775.06;;;-9.71;100.00
6500;BME280;3283;52.330;9.772;2024-01-11T00:02:41;101778.50;;;-9.70;100.00
6500;BME280;3283;52.330;9.772;2024-01-11T00:05:07;101784.50;;;-9.59;100.00
6500;BME280;3283;52.330;9.772;2024-01-11T00:07:32;101775.31;;;-9.68;100.00
6500;BME280;3283;52.330;9.772;2024-01-11T00:09:58;101784.91;;;-9.65;100.00
6500;BME280;3283;52.330;9.772;2024-01-11T00:12:23;101802.28;;;-9.80;100.00
6500;BME280;3283;52.330;9.772;2024-01-11T00:14:48;101796.47;;;-9.98;100.00
6500;BME280;3283;52.330;9.772;2024-01-11T00:17:14;101791.31;;;-10.08;100.00
6500;BME280;3283;52.330;9.772;2024-01-11T00:19:41;101795.03;;;-10.14;100.00
6500;BME280;3283;52.330;9.772;2024-01-11T00:22:06;101790.28;;;-10.20;100.00
6500;BME280;3283;52.330;9.772;2024-01-11T00:24:31;101787.13;;;-10.36;100.00
6500;BME280;3283;52.330;9.772;2024-01-11T00:26:57;101778.06;;;-10.24;100.00
6500;BME280;3283;52.330;9.772;2024-01-11T00:29:22;101781.03;;;-10.09;100.00
6500;BME280;3283;52.330;9.772;2024-01-11T00:31:48;101777.59;;;-10.10;100.00
6500;BME280;3283;52.330;9.772;2024-01-11T00:34:13;101782.69;;;-10.10;100.00
6500;BME280;3283;52.330;9.772;2024-01-11T00:36:38;101773.13;;;-10.12;100.00
6500;BME280;3283;52.330;9.772;2024-01-11T00:39:04;101766.41;;;-10.02;100.00
6500;BME280;3283;52.330;9.772;2024-01-11T00:41:29;101768.19;;;-10.01;100.00
6500;BME280;3283;52.330;9.772;2024-01-11T00:43:54;101763.50;;;-10.06;100.00
6500;BME280;3283;52.330;9.772;2024-01-11T00:46:20;101769.19;;;-10.09;100.00
6500;BME280;3283;52.330;9.772;2024-01-11T00:48:45;101764.38;;;-10.06;100.00
6500;BME280;3283;52.330;9.772;2024-01-11T00:51:11;101763.50;;;-10.06;100.00
6500;BME280;3283;52.330;9.772;2024-01-11T00:53:36;101766.41;;;-10.02;100.00
6500;BME280;3283;52.330;9.772;2024-01-11T00:56:02;101768.13;;;-9.92;100.00
6500;BME280;3283;52.330;9.772;2024-01-11T00:58:27;101782.06;;;-10.07;100.00
6500;BME280;3283;52.330;9.772;2024-01-11T01:00:53;101790.41;;;-10.29;100.00
6500;BME280;3283;52.330;9.772;2024-01-11T01:03:20;101783.16;;;-10.24;100.00
6500;BME280;3283;52.330;9.772;2024-01-11T01:05:46;101778.09;;;-10.14;100.00
6500;BME280;3283;52.330;9.772;2024-01-11T01:08:12;101781.78;;;-10.39;100.00
6500;BME280;3283;52.330;9.772;2024-01-11T01:10:37;101798.91;;;-10.85;100.00
6500;BME280;3283;52.330;9.772;2024-01-11T01:13:03;101784.47;;;-10.94;100.00
6500;BME280;3283;52.330;9.772;2024-01-11T01:15:29;101775.84;;;-10.77;100.00
6500;BME280;3283;52.330;9.772;2024-01-11T01:17:54;101776.56;;;-10.60;100.00
6500;BME280;3283;52.330;9.772;2024-01-11T01:20:19;101769.63;;;-10.33;100.00
6500;BME280;3283;52.330;9.772;2024-01-11T01:22:45;101761.22;;;-10.22;100.00
6500;BME280;3283;52.330;9.772;2024-01-11T01:25:10;101754.28;;;-10.14;100.00
6500;BME280;3283;52.330;9.772;2024-01-11T01:27:36;101761.16;;;-10.13;100.00
6500;BME280;3283;52.330;9.772;2024-01-11T01:30:01;101754.78;;;-10.18;100.00
6500;BME280;3283;52.330;9.772;2024-01-11T01:32:26;101756.06;;;-10.13;100.00
6500;BME280;3283;52.330;9.772;2024-01-11T01:34:52;101750.88;;;-10.05;100.00
6500;BME280;3283;52.330;9.772;2024-01-11T01:37:18;101759.94;;;-9.98;100.00
6500;BME280;3283;52.330;9.772;2024-01-11T01:39:43;101757.19;;;-9.91;100.00
6500;BME280;3283;52.330;9.772;2024-01-11T01:42:08;101767.38;;;-9.81;100.00
6500;BME280;3283;52.330;9.772;2024-01-11T01:44:34;101770.22;;;-9.78;100.00
6500;BME280;3283;52.330;9.772;2024-01-11T01:47:00;101771.59;;;-9.81;100.00
6500;BME280;3283;52.330;9.772;2024-01-11T01:49:27;101777.97;;;-9.86;100.00
6500;BME280;3283;52.330;9.772;2024-01-11T01:51:53;101768.91;;;-9.83;100.00
6500;BME280;3283;52.330;9.772;2024-01-11T01:54:20;101771.22;;;-9.76;100.00
6500;BME280;3283;52.330;9.772;2024-01-11T01:56:47;101766.50;;;-9.81;100.00
6500;BME280;3283;52.330;9.772;2024-01-11T01:59:12;101774.38;;;-9.88;100.00
6500;BME280;3283;52.330;9.772;2024-01-11T02:01:39;101782.19;;;-10.06;100.00
6500;BME280;3283;52.330;9.772;2024-01-11T02:04:04;101773.44;;;-9.99;100.00
6500;BME280;3283;52.330;9.772;2024-01-11T02:06:32;101768.00;;;-9.93;100.00
6500;BME280;3283;52.330;9.772;2024-01-11T02:08:58;101773.22;;;-9.92;100.00
6500;BME280;3283;52.330;9.772;2024-01-11T02:11:24;101767.06;;;-10.04;100.00
6500;BME280;3283;52.330;9.772;2024-01-11T02:13:50;101764.28;;;-9.97;100.00
6500;BME280;3283;52.330;9.772;2024-01-11T02:16:16;101765.66;;;-10.01;100.00
6500;BME280;3283;52.330;9.772;2024-01-11T02:18:41;101757.94;;;-9.92;100.00
6500;BME280;3283;52.330;9.772;2024-01-11T02:21:09;101761.84;;;-9.96;100.00
6500;BME280;3283;52.330;9.772;2024-01-11T02:23:42;101771.66;;;-10.00;100.00
6500;BME280;3283;52.330;9.772;2024-01-11T02:26:11;101756.31;;;-10.10;100.00
6500;BME280;3283;52.330;9.772;2024-01-11T02:28:37;101751.53;;;-10.07;100.00
6500;BME280;3283;52.330;9.772;2024-01-11T02:31:02;101764.81;;;-10.20;100.00
6500;BME280;3283;52.330;9.772;2024-01-11T02:33:28;101765.44;;;-10.33;100.00
6500;BME280;3283;52.330;9.772;2024-01-11T02:35:53;101768.25;;;-10.19;100.00
6500;BME280;3283;52.330;9.772;2024-01-11T02:38:19;101767.13;;;-10.23;100.00
6500;BME280;3283;52.330;9.772;2024-01-11T02:40:45;101760.75;;;-10.18;100.00
6500;BME280;3283;52.330;9.772;2024-01-11T02:43:12;101751.03;;;-10.22;100.00
6500;BME280;3283;52.330;9.772;2024-01-11T02:45:37;101744.84;;;-10.15;100.00
6500;BME280;3283;52.330;9.772;2024-01-11T02:48:03;101739.16;;;-10.13;100.00
6500;BME280;3283;52.330;9.772;2024-01-11T02:50:29;101737.34;;;-10.24;100.00
6500;BME280;3283;52.330;9.772;2024-01-11T02:52:54;101739.63;;;-10.27;100.00
6500;BME280;3283;52.330;9.772;2024-01-11T02:55:19;101752.97;;;-10.30;100.00
6500;BME280;3283;52.330;9.772;2024-01-11T02:57:45;101743.19;;;-10.15;100.00
6500;BME280;3283;52.330;9.772;2024-01-11T03:00:11;101732.06;;;-10.07;100.00
6500;BME280;3283;52.330;9.772;2024-01-11T03:02:37;101731.78;;;-10.10;100.00
6500;BME280;3283;52.330;9.772;2024-01-11T03:05:03;101728.06;;;-10.23;100.00
6500;BME280;3283;52.330;9.772;2024-01-11T03:07:29;101733.78;;;-10.16;100.00
6500;BME280;3283;52.330;9.772;2024-01-11T03:09:55;101726.41;;;-10.23;100.00
6500;BME280;3283;52.330;9.772;2024-01-11T03:12:21;101745.34;;;-10.19;100.00
6500;BME280;3283;52.330;9.772;2024-01-11T03:14:47;101742.22;;;-10.07;100.00
6500;BME280;3283;52.330;9.772;2024-01-11T03:17:13;101741.59;;;-10.04;100.00
6500;BME280;3283;52.330;9.772;2024-01-11T03:19:40;101751.13;;;-10.02;100.00
6500;BME280;3283;52.330;9.772;2024-01-11T03:22:06;101749.66;;;-10.00;100.00
6500;BME280;3283;52.330;9.772;2024-01-11T03:24:32;101748.38;;;-9.94;100.00
6500;BME280;3283;52.330;9.772;2024-01-11T03:26:58;101744.94;;;-9.95;100.00
6500;BME280;3283;52.330;9.772;2024-01-11T03:29:23;101732.06;;;-9.97;100.00
6500;BME280;3283;52.330;9.772;2024-01-11T03:31:49;101750.38;;;-10.01;100.00
6500;BME280;3283;52.330;9.772;2024-01-11T03:34:14;101745.94;;;-10.03;100.00
6500;BME280;3283;52.330;9.772;2024-01-11T03:36:39;101735.31;;;-10.08;100.00
6500;BME280;3283;52.330;9.772;2024-01-11T03:39:05;101735.09;;;-10.01;100.00
6500;BME280;3283;52.330;9.772;2024-01-11T03:41:31;101730.66;;;-10.03;100.00
6500;BME280;3283;52.330;9.772;2024-01-11T03:43:56;101741.47;;;-10.06;100.00
6500;BME280;3283;52.330;9.772;2024-01-11T03:46:22;101746.81;;;-10.03;100.00
6500;BME280;3283;52.330;9.772;2024-01-11T03:48:47;101764.28;;;-9.97;100.00
6500;BME280;3283;52.330;9.772;2024-01-11T03:51:13;101768.88;;;-9.93;100.00
6500;BME280;3283;52.330;9.772;2024-01-11T03:53:38;101769.56;;;-10.14;100.00
6500;BME280;3283;52.330;9.772;2024-01-11T03:56:04;101755.09;;;-10.05;100.00
6500;BME280;3283;52.330;9.772;2024-01-11T03:58:30;101763.63;;;-9.94;100.00
6500;BME280;3283;52.330;9.772;2024-01-11T04:00:55;101759.84;;;-9.89;100.00
6500;BME280;3283;52.330;9.772;2024-01-11T04:03:21;101758.72;;;-9.83;100.00
6500;BME280;3283;52.330;9.772;2024-01-11T04:05:46;101746.41;;;-9.78;100.00
6500;BME280;3283;52.330;9.772;2024-01-11T04:08:12;101755.28;;;-9.83;100.00
6500;BME280;3283;52.330;9.772;2024-01-11T04:10:38;101758.31;;;-9.87;100.00
6500;BME280;3283;52.330;9.772;2024-01-11T04:13:03;101768.00;;;-9.93;100.00
6500;BME280;3283;52.330;9.772;2024-01-11T04:15:29;101748.00;;;-9.89;100.00
6500;BME280;3283;52.330;9.772;2024-01-11T04:17:54;101745.16;;;-10.02;100.00
6500;BME280;3283;52.330;9.772;2024-01-11T04:20:19;101753.31;;;-10.06;100.00
6500;BME280;3283;52.330;9.772;2024-01-11T04:22:45;101752.91;;;-10.01;100.00
6500;BME280;3283;52.330;9.772;2024-01-11T04:25:10;101747.56;;;-10.04;100.00
6500;BME280;3283;52.330;9.772;2024-01-11T04:27:36;101740.97;;;-10.02;100.00
6500;BME280;3283;52.330;9.772;2024-01-11T04:30:02;101731.06;;;-9.99;100.00
6500;BME280;3283;52.330;9.772;2024-01-11T04:32:27;101721.47;;;-10.01;100.00
6500;BME280;3283;52.330;9.772;2024-01-11T04:34:53;101722.13;;;-10.04;100.00
6500;BME280;3283;52.330;9.772;2024-01-11T04:37:18;101729.50;;;-10.07;100.00
6500;BME280;3283;52.330;9.772;2024-01-11T04:39:44;101730.53;;;-10.05;100.00
6500;BME280;3283;52.330;9.772;2024-01-11T04:42:09;101730.16;;;-9.99;100.00
6500;BME280;3283;52.330;9.772;2024-01-11T04:44:35;101739.59;;;-9.88;100.00
6500;BME280;3283;52.330;9.772;2024-01-11T04:47:00;101730.69;;;-9.93;100.00
6500;BME280;3283;52.330;9.772;2024-01-11T04:49:26;101726.50;;;-9.92;100.00
6500;BME280;3283;52.330;9.772;2024-01-11T04:51:51;101732.13;;;-9.86;100.00
6500;BME280;3283;52.330;9.772;2024-01-11T04:54:17;101727.28;;;-9.83;100.00
6500;BME280;3283;52.330;9.772;2024-01-11T04:56:42;101734.66;;;-9.86;100.00
6500;BME280;3283;52.330;9.772;2024-01-11T04:59:07;101741.53;;;-9.85;100.00
6500;BME280;3283;52.330;9.772;2024-01-11T05:01:33;101755.78;;;-9.87;100.00
6500;BME280;3283;52.330;9.772;2024-01-11T05:03:58;101760.53;;;-10.11;100.00
6500;BME280;3283;52.330;9.772;2024-01-11T05:06:24;101761.84;;;-10.06;100.00
6500;BME280;3283;52.330;9.772;2024-01-11T05:08:51;101776.25;;;-10.35;100.00
6500;BME280;3283;52.330;9.772;2024-01-11T05:11:22;101788.69;;;-10.76;100.00
6500;BME280;3283;52.330;9.772;2024-01-11T05:13:49;101797.97;;;-10.76;100.00
6500;BME280;3283;52.330;9.772;2024-01-11T05:16:24;101791.78;;;-10.70;100.00
6500;BME280;3283;52.330;9.772;2024-01-11T05:18:51;101798.06;;;-10.94;100.00
6500;BME280;3283;52.330;9.772;2024-01-11T05:21:20;101796.28;;;-10.95;100.00
6500;BME280;3283;52.330;9.772;2024-01-11T05:23:46;101794.22;;;-10.80;100.00
6500;BME280;3283;52.330;9.772;2024-01-11T05:26:14;101797.75;;;-10.69;100.00
6500;BME280;3283;52.330;9.772;2024-01-11T05:28:40;101805.13;;;-11.00;100.00
6500;BME280;3283;52.330;9.772;2024-01-11T05:31:07;101800.44;;;-10.68;100.00
6500;BME280;3283;52.330;9.772;2024-01-11T05:33:33;101775.91;;;-10.48;100.00
6500;BME280;3283;52.330;9.772;2024-01-11T05:36:01;101776.28;;;-10.44;100.00
6500;BME280;3283;52.330;9.772;2024-01-11T05:38:27;101783.63;;;-11.03;100.00
6500;BME280;3283;52.330;9.772;2024-01-11T05:40:53;101770.19;;;-10.65;100.00
6500;BME280;3283;52.330;9.772;2024-01-11T05:43:18;101766.09;;;-10.44;100.00
6500;BME280;3283;52.330;9.772;2024-01-11T05:45:44;101773.31;;;-10.30;100.00
6500;BME280;3283;52.330;9.772;2024-01-11T05:48:10;101761.91;;;-10.25;100.00
6500;BME280;3283;52.330;9.772;2024-01-11T05:50:36;101762.25;;;-10.30;100.00
6500;BME280;3283;52.330;9.772;2024-01-11T05:53:02;101763.34;;;-10.37;100.00
6500;BME280;3283;52.330;9.772;2024-01-11T05:55:27;101761.69;;;-10.36;100.00
6500;BME280;3283;52.330;9.772;2024-01-11T05:57:53;101763.91;;;-10.31;100.00
6500;BME280;3283;52.330;9.772;2024-01-11T06:00:18;101772.72;;;-10.27;100.00
6500;BME280;3283;52.330;9.772;2024-01-11T06:02:44;101777.41;;;-10.21;100.00
6500;BME280;3283;52.330;9.772;2024-01-11T06:05:09;101766.50;;;-10.10;100.00
6500;BME280;3283;52.330;9.772;2024-01-11T06:07:35;101738.16;;;-10.05;100.00
6500;BME280;3283;52.330;9.772;2024-01-11T06:10:01;101746.13;;;-10.20;100.00
6500;BME280;3283;52.330;9.772;2024-01-11T06:12:28;101751.53;;;-10.36;100.00
6500;BME280;3283;52.330;9.772;2024-01-11T06:14:53;101755.16;;;-10.24;100.00
6500;BME280;3283;52.330;9.772;2024-01-11T06:17:19;101762.06;;;-10.13;100.00
6500;BME280;3283;52.330;9.772;2024-01-11T06:19:44;101762.84;;;-10.04;100.00
6500;BME280;3283;52.330;9.772;2024-01-11T06:22:10;101763.88;;;-10.02;100.00
6500;BME280;3283;52.330;9.772;2024-01-11T06:24:35;101764.97;;;-10.08;100.00
6500;BME280;3283;52.330;9.772;2024-01-11T06:27:01;101747.56;;;-10.04;100.00
6500;BME280;3283;52.330;9.772;2024-01-11T06:29:27;101750.38;;;-10.01;100.00
6500;BME280;3283;52.330;9.772;2024-01-11T06:31:54;101742.97;;;-10.08;100.00
6500;BME280;3283;52.330;9.772;2024-01-11T06:34:19;101760.00;;;-10.17;100.00
6500;BME280;3283;52.330;9.772;2024-01-11T06:36:44;101775.94;;;-10.09;100.00
6500;BME280;3283;52.330;9.772;2024-01-11T06:39:10;101758.00;;;-10.01;100.00
6500;BME280;3283;52.330;9.772;2024-01-11T06:41:35;101755.34;;;-10.02;100.00
6500;BME280;3283;52.330;9.772;2024-01-11T06:44:00;101763.56;;;-10.15;100.00
6500;BME280;3283;52.330;9.772;2024-01-11T06:46:26;101766.84;;;-10.16;100.00
6500;BME280;3283;52.330;9.772;2024-01-11T06:48:52;101770.84;;;-10.09;100.00
6500;BME280;3283;52.330;9.772;2024-01-11T06:51:21;101759.00;;;-10.09;100.00
6500;BME280;3283;52.330;9.772;2024-01-11T06:53:47;101762.06;;;-10.13;100.00
6500;BME280;3283;52.330;9.772;2024-01-11T06:56:17;101763.72;;;-10.13;100.00
6500;BME280;3283;52.330;9.772;2024-01-11T06:58:43;101758.75;;;-10.12;100.00
6500;BME280;3283;52.330;9.772;2024-01-11T07:01:09;101765.06;;;-10.17;100.00
6500;BME280;3283;52.330;9.772;2024-01-11T07:03:35;101754.63;;;-10.30;100.00
6500;BME280;3283;52.330;9.772;2024-01-11T07:06:00;101746.19;;;-10.39;100.00
6500;BME280;3283;52.330;9.772;2024-01-11T07:08:26;101757.16;;;-10.30;100.00
6500;BME280;3283;52.330;9.772;2024-01-11T07:10:51;101761.59;;;-10.57;100.00
6500;BME280;3283;52.330;9.772;2024-01-11T07:13:16;101776.56;;;-10.60;100.00
6500;BME280;3283;52.330;9.772;2024-01-11T07:15:45;101788.75;;;-10.66;100.00
6500;BME280;3283;52.330;9.772;2024-01-11T07:18:13;101784.72;;;-10.64;100.00
6500;BME280;3283;52.330;9.772;2024-01-11T07:20:38;101790.47;;;-10.56;100.00
6500;BME280;3283;52.330;9.772;2024-01-11T07:23:04;101801.81;;;-10.53;100.00
6500;BME280;3283;52.330;9.772;2024-01-11T07:25:29;101808.69;;;-10.52;100.00
6500;BME280;3283;52.330;9.772;2024-01-11T07:27:55;101822.03;;;-10.54;100.00
6500;BME280;3283;52.330;9.772;2024-01-11T07:30:21;101815.34;;;-10.43;100.00
6500;BME280;3283;52.330;9.772;2024-01-11T07:32:46;101805.16;;;-10.43;100.00
6500;BME280;3283;52.330;9.772;2024-01-11T07:35:12;101811.03;;;-10.63;100.00
6500;BME280;3283;52.330;9.772;2024-01-11T07:37:38;101813.09;;;-10.40;100.00
6500;BME280;3283;52.330;9.772;2024-01-11T07:40:05;101803.94;;;-10.38;100.00
6500;BME280;3283;52.330;9.772;2024-01-11T07:42:35;101820.09;;;-10.57;100.00
6500;BME280;3283;52.330;9.772;2024-01-11T07:45:01;101829.09;;;-10.41;100.00
6500;BME280;3283;52.330;9.772;2024-01-11T07:47:26;101839.53;;;-10.19;100.00
6500;BME280;3283;52.330;9.772;2024-01-11T07:49:51;101837.16;;;-10.08;100.00
6500;BME280;3283;52.330;9.772;2024-01-11T07:52:17;101826.16;;;-10.17;100.00
6500;BME280;3283;52.330;9.772;2024-01-11T07:54:42;101814.84;;;-10.20;100.00
6500;BME280;3283;52.330;9.772;2024-01-11T07:57:08;101806.00;;;-10.05;100.00
6500;BME280;3283;52.330;9.772;2024-01-11T07:59:33;101804.38;;;-9.94;100.00
6500;BME280;3283;52.330;9.772;2024-01-11T08:02:01;101804.44;;;-9.84;100.00
6500;BME280;3283;52.330;9.772;2024-01-11T08:04:27;101809.19;;;-9.79;100.00
6500;BME280;3283;52.330;9.772;2024-01-11T08:06:52;101809.00;;;-9.90;100.00
6500;BME280;3283;52.330;9.772;2024-01-11T08:09:18;101804.78;;;-9.90;100.00
6500;BME280;3283;52.330;9.772;2024-01-11T08:11:43;101811.34;;;-10.02;100.00
6500;BME280;3283;52.330;9.772;2024-01-11T08:14:09;101799.88;;;-10.07;100.00
6500;BME280;3283;52.330;9.772;2024-01-11T08:16:37;101810.97;;;-10.07;100.00
6500;BME280;3283;52.330;9.772;2024-01-11T08:19:03;101809.44;;;-10.05;100.00
6500;BME280;3283;52.330;9.772;2024-01-11T08:21:29;101813.19;;;-9.91;100.00
6500;BME280;3283;52.330;9.772;2024-01-11T08:23:54;101807.47;;;-9.88;100.00
6500;BME280;3283;52.330;9.772;2024-01-11T08:26:20;101805.00;;;-9.97;100.00
6500;BME280;3283;52.330;9.772;2024-01-11T08:28:47;101807.31;;;-10.19;100.00
6500;BME280;3283;52.330;9.772;2024-01-11T08:31:13;101814.94;;;-10.00;100.00
6500;BME280;3283;52.330;9.772;2024-01-11T08:33:38;101817.53;;;-9.90;100.00
6500;BME280;3283;52.330;9.772;2024-01-11T08:36:05;101820.03;;;-10.00;100.00
6500;BME280;3283;52.330;9.772;2024-01-11T08:38:31;101807.75;;;-9.85;100.00
6500;BME280;3283;52.330;9.772;2024-01-11T08:40:57;101806.00;;;-9.76;100.00
6500;BME280;3283;52.330;9.772;2024-01-11T08:43:25;101791.19;;;-9.80;100.00
6500;BME280;3283;52.330;9.772;2024-01-11T08:45:50;101797.81;;;-9.82;100.00
6500;BME280;3283;52.330;9.772;2024-01-11T08:48:16;101812.91;;;-9.65;100.00
6500;BME280;3283;52.330;9.772;2024-01-11T08:50:42;101829.56;;;-9.79;100.00
6500;BME280;3283;52.330;9.772;2024-01-11T08:53:08;101848.28;;;-9.78;100.00
6500;BME280;3283;52.330;9.772;2024-01-11T08:55:33;101840.44;;;-9.61;100.00
6500;BME280;3283;52.330;9.772;2024-01-11T08:57:59;101847.59;;;-9.57;100.00
6500;BME280;3283;52.330;9.772;2024-01-11T09:00:24;101833.16;;;-9.27;100.00
6500;BME280;3283;52.330;9.772;2024-01-11T09:02:50;101838.59;;;-9.43;100.00
6500;BME280;3283;52.330;9.772;2024-01-11T09:05:15;101837.22;;;-9.29;100.00
6500;BME280;3283;52.330;9.772;2024-01-11T09:07:41;101826.03;;;-9.21;100.00
6500;BME280;3283;52.330;9.772;2024-01-11T09:10:08;101819.53;;;-9.18;100.00
6500;BME280;3283;52.330;9.772;2024-01-11T09:12:34;101809.06;;;-9.10;100.00
6500;BME280;3283;52.330;9.772;2024-01-11T09:15:00;101813.44;;;-8.89;100.00
6500;BME280;3283;52.330;9.772;2024-01-11T09:17:25;101818.16;;;-8.73;100.00
6500;BME280;3283;52.330;9.772;2024-01-11T09:19:51;101817.91;;;-8.56;100.00
6500;BME280;3283;52.330;9.772;2024-01-11T09:22:17;101821.47;;;-8.74;100.00
6500;BME280;3283;52.330;9.772;2024-01-11T09:24:42;101831.44;;;-8.57;100.00
6500;BME280;3283;52.330;9.772;2024-01-11T09:27:07;101830.78;;;-8.44;100.00
6500;BME280;3283;52.330;9.772;2024-01-11T09:29:33;101841.03;;;-8.33;100.00
6500;BME280;3283;52.330;9.772;2024-01-11T09:31:59;101847.22;;;-8.41;100.00
6500;BME280;3283;52.330;9.772;2024-01-11T09:34:25;101848.19;;;-8.28;100.00
6500;BME280;3283;52.330;9.772;2024-01-11T09:36:50;101848.19;;;-8.28;100.00
6500;BME280;3283;52.330;9.772;2024-01-11T09:39:16;101832.84;;;-8.18;100.00
6500;BME280;3283;52.330;9.772;2024-01-11T09:41:51;101841.25;;;-7.99;100.00
6500;BME280;3283;52.330;9.772;2024-01-11T09:44:17;101826.00;;;-8.30;100.00
6500;BME280;3283;52.330;9.772;2024-01-11T09:46:44;101827.00;;;-8.17;100.00
6500;BME280;3283;52.330;9.772;2024-01-11T09:49:10;101818.56;;;-8.16;100.00
6500;BME280;3283;52.330;9.772;2024-01-11T09:51:37;101812.19;;;-7.79;100.00
6500;BME280;3283;52.330;9.772;2024-01-11T09:54:05;101805.94;;;-7.83;100.00
6500;BME280;3283;52.330;9.772;2024-01-11T09:56:32;101810.66;;;-7.55;100.00
6500;BME280;3283;52.330;9.772;2024-01-11T09:58:58;101806.38;;;-7.66;100.00
6500;BME280;3283;52.330;9.772;2024-01-11T10:01:24;101798.84;;;-7.65;100.00
6500;BME280;3283;52.330;9.772;2024-01-11T10:03:50;101800.09;;;-7.38;100.00
6500;BME280;3283;52.330;9.772;2024-01-11T10:06:17;101793.13;;;-7.29;100.00
6500;BME280;3283;52.330;9.772;2024-01-11T10:08:43;101802.25;;;-7.32;100.00
6500;BME280;3283;52.330;9.772;2024-01-11T10:11:08;101799.22;;;-7.05;100.00
6500;BME280;3283;52.330;9.772;2024-01-11T10:13:35;101795.38;;;-7.22;100.00
6500;BME280;3283;52.330;9.772;2024-01-11T10:16:12;101790.22;;;-7.33;100.00
6500;BME280;3283;52.330;9.772;2024-01-11T10:18:43;101789.38;;;-7.22;100.00
6500;BME280;3283;52.330;9.772;2024-01-11T10:21:09;101781.97;;;-7.07;100.00
6500;BME280;3283;52.330;9.772;2024-01-11T10:23:35;101786.78;;;-7.00;100.00
6500;BME280;3283;52.330;9.772;2024-01-11T10:26:01;101785.38;;;-6.85;100.00
6500;BME280;3283;52.330;9.772;2024-01-11T10:28:27;101786.56;;;-6.58;100.00
6500;BME280;3283;52.330;9.772;2024-01-11T10:30:54;101787.22;;;-6.49;100.00
6500;BME280;3283;52.330;9.772;2024-01-11T10:33:19;101792.16;;;-6.40;100.00
6500;BME280;3283;52.330;9.772;2024-01-11T10:35:46;101773.06;;;-6.90;100.00
6500;BME280;3283;52.330;9.772;2024-01-11T10:38:14;101782.50;;;-6.89;100.00
6500;BME280;3283;52.330;9.772;2024-01-11T10:40:41;101779.91;;;-7.01;100.00
6500;BME280;3283;52.330;9.772;2024-01-11T10:43:08;101793.84;;;-6.86;100.00
6500;BME280;3283;52.330;9.772;2024-01-11T10:45:37;101795.84;;;-6.48;100.00
6500;BME280;3283;52.330;9.772;2024-01-11T10:48:15;101802.63;;;-6.37;100.00
6500;BME280;3283;52.330;9.772;2024-01-11T10:50:43;101802.59;;;-6.49;100.00
6500;BME280;3283;52.330;9.772;2024-01-11T10:55:41;101803.06;;;-6.31;100.00
6500;BME280;3283;52.330;9.772;2024-01-11T10:58:07;101801.97;;;-6.23;100.00
6500;BME280;3283;52.330;9.772;2024-01-11T11:00:34;101796.19;;;-6.09;100.00
6500;BME280;3283;52.330;9.772;2024-01-11T11:03:00;101799.50;;;-6.21;100.00
6500;BME280;3283;52.330;9.772;2024-01-11T11:05:28;101803.66;;;-6.12;100.00
6500;BME280;3283;52.330;9.772;2024-01-11T11:07:58;101793.06;;;-6.04;100.00
6500;BME280;3283;52.330;9.772;2024-01-11T11:10:27;101803.28;;;-5.93;100.00
6500;BME280;3283;52.330;9.772;2024-01-11T11:12:54;101802.75;;;-6.00;100.00
6500;BME280;3283;52.330;9.772;2024-01-11T11:15:21;101795.38;;;-6.07;100.00
6500;BME280;3283;52.330;9.772;2024-01-11T11:17:49;101801.09;;;-6.12;100.00
6500;BME280;3283;52.330;9.772;2024-01-11T11:20:15;101804.66;;;-6.10;100.00
6500;BME280;3283;52.330;9.772;2024-01-11T11:22:42;101807.22;;;-5.98;100.00
6500;BME280;3283;52.330;9.772;2024-01-11T11:25:11;101794.56;;;-5.83;100.00
6500;BME280;3283;52.330;9.772;2024-01-11T11:27:48;101792.66;;;-5.62;100.00
6500;BME280;3283;52.330;9.772;2024-01-11T11:30:14;101799.00;;;-5.69;100.00
6500;BME280;3283;52.330;9.772;2024-01-11T11:32:43;101798.16;;;-5.93;100.00
6500;BME280;3283;52.330;9.772;2024-01-11T11:35:08;101786.28;;;-6.04;100.00
6500;BME280;3283;52.330;9.772;2024-01-11T11:37:38;101791.16;;;-6.07;100.00
6500;BME280;3283;52.330;9.772;2024-01-11T11:40:09;101789.09;;;-5.88;100.00
6500;BME280;3283;52.330;9.772;2024-01-11T11:42:36;101779.97;;;-5.84;100.00
6500;BME280;3283;52.330;9.772;2024-01-11T11:45:01;101768.59;;;-5.76;100.00
6500;BME280;3283;52.330;9.772;2024-01-11T11:47:34;101780.72;;;-5.62;100.00
6500;BME280;3283;52.330;9.772;2024-01-11T11:52:40;101751.53;;;-5.64;100.00
6500;BME280;3283;52.330;9.772;2024-01-11T11:55:09;101744.31;;;-5.81;100.00
6500;BME280;3283;52.330;9.772;2024-01-11T11:57:37;101740.50;;;-5.74;100.00
6500;BME280;3283;52.330;9.772;2024-01-11T12:00:03;101737.94;;;-5.86;100.00
6500;BME280;3283;52.330;9.772;2024-01-11T12:02:32;101739.91;;;-5.95;100.00
6500;BME280;3283;52.330;9.772;2024-01-11T12:05:01;101742.19;;;-5.87;100.00
6500;BME280;3283;52.330;9.772;2024-01-11T12:07:27;101751.19;;;-5.80;100.00
6500;BME280;3283;52.330;9.772;2024-01-11T12:09:52;101741.91;;;-5.66;100.00
6500;BME280;3283;52.330;9.772;2024-01-11T12:12:18;101742.34;;;-5.60;100.00
6500;BME280;3283;52.330;9.772;2024-01-11T12:14:46;101725.34;;;-5.46;100.00
6500;BME280;3283;52.330;9.772;2024-01-11T12:17:12;101718.94;;;-5.28;100.00
6500;BME280;3283;52.330;9.772;2024-01-11T12:19:38;101708.09;;;-5.24;100.00
6500;BME280;3283;52.330;9.772;2024-01-11T12:22:04;101712.66;;;-5.20;100.00
6500;BME280;3283;52.330;9.772;2024-01-11T12:24:29;101715.44;;;-5.04;100.00
6500;BME280;3283;52.330;9.772;2024-01-11T12:26:57;101711.84;;;-5.19;100.00
6500;BME280;3283;52.330;9.772;2024-01-11T12:29:25;101713.56;;;-5.31;100.00
6500;BME280;3283;52.330;9.772;2024-01-11T12:31:51;101716.47;;;-5.27;100.00
6500;BME280;3283;52.330;9.772;2024-01-11T12:34:17;101717.09;;;-5.17;100.00
6500;BME280;3283;52.330;9.772;2024-01-11T12:36:42;101713.81;;;-5.15;100.00
6500;BME280;3283;52.330;9.772;2024-01-11T12:39:08;101715.81;;;-5.11;100.00
6500;BME280;3283;52.330;9.772;2024-01-11T12:41:36;101728.03;;;-5.20;100.00
6500;BME280;3283;52.330;9.772;2024-01-11T12:44:02;101719.22;;;-5.23;100.00
6500;BME280;3283;52.330;9.772;2024-01-11T12:46:28;101721.09;;;-4.96;100.00
6500;BME280;3283;52.330;9.772;2024-01-11T12:48:54;101724.63;;;-4.94;100.00
6500;BME280;3283;52.330;9.772;2024-01-11T12:51:20;101725.44;;;-4.95;100.00
6500;BME280;3283;52.330;9.772;2024-01-11T12:53:46;101714.84;;;-5.13;100.00